Time;durP1;ratioP1;P1;durP2;ratioP2;P2;SDS_P1;SDS_P2;PMS_P1;PMS_P2;Temp;Humidity;BMP_temperature;BMP_pressure;BME280_temperature;BME280_humidity;BME280_pressure;Samples;Min_cycle;Max_cycle;Signal;HPM_P1;HPM_P2
2022/04/04 00:01:03;;;;;;;0.00;0.00;;;;;;;;;;6151083;23;20422;-54
2022/04/04 00:03:29;;;;;;;0.00;0.00;;;;;;;;;;6152173;23;20012;-55
2022/04/04 00:05:54;;;;;;;0.20;0.20;;;;;;;;;;6152394;23;19997;-56
2022/04/04 00:08:19;;;;;;;0.00;0.00;;;;;;;;;;6152635;23;20001;-55
2022/04/04 00:10:44;;;;;;;2.85;2.75;;;;;;;;;;6152555;23;20012;-56
2022/04/04 00:13:10;;;;;;;0.00;0.00;;;;;;;;;;6152472;23;20109;-54
2022/04/04 00:15:35;;;;;;;0.30;0.30;;;;;;;;;;6152583;23;20012;-55
2022/04/04 00:18:07;;;;;;;0.05;0.05;;;;;;;;;;6152300;23;20002;-52
2022/04/04 00:20:32;;;;;;;0.00;0.00;;;;;;;;;;6152373;23;20006;-55
2022/04/04 00:22:57;;;;;;;0.00;0.00;;;;;;;;;;6152255;23;20093;-57
2022/04/04 00:25:22;;;;;;;0.00;0.00;;;;;;;;;;6152724;23;20048;-53
2022/04/04 00:27:50;;;;;;;0.00;0.00;;;;;;;;;;6126500;23;20008;-54
2022/04/04 00:30:15;;;;;;;0.00;0.00;;;;;;;;;;6152414;23;20008;-56
2022/04/04 00:32:41;;;;;;;0.00;0.00;;;;;;;;;;6152228;23;19993;-54
2022/04/04 00:35:06;;;;;;;0.00;0.00;;;;;;;;;;6152336;23;20446;-54
2022/04/04 00:37:34;;;;;;;0.47;0.47;;;;;;;;;;6152711;23;20002;-52
2022/04/04 00:39:59;;;;;;;0.00;0.00;;;;;;;;;;6152565;23;20001;-55
2022/04/04 00:42:24;;;;;;;0.00;0.00;;;;;;;;;;6152909;23;20019;-52
2022/04/04 00:44:51;;;;;;;0.00;0.00;;;;;;;;;;6152776;23;20001;-54
2022/04/04 00:47:16;;;;;;;0.00;0.00;;;;;;;;;;6126116;23;19998;-53
2022/04/04 00:49:41;;;;;;;0.00;0.00;;;;;;;;;;6152230;23;20009;-54
2022/04/04 00:52:07;;;;;;;0.10;0.10;;;;;;;;;;6152388;23;19998;-55
2022/04/04 00:54:32;;;;;;;0.00;0.00;;;;;;;;;;6152338;23;20390;-55
2022/04/04 00:57:00;;;;;;;0.00;0.00;;;;;;;;;;6152241;23;20080;-53
2022/04/04 00:59:25;;;;;;;0.00;0.00;;;;;;;;;;6154201;23;20001;-53
2022/04/04 01:01:51;;;;;;;0.00;0.00;;;;;;;;;;6153921;23;20085;-52
2022/04/04 01:04:16;;;;;;;0.00;0.00;;;;;;;;;;6153429;23;20017;-52
2022/04/04 01:06:43;;;;;;;0.00;0.00;;;;;;;;;;6154752;23;19998;-55
2022/04/04 01:09:13;;;;;;;0.00;0.00;;;;;;;;;;6154296;23;20025;-56
2022/04/04 01:11:59;;;;;;;0.00;0.00;;;;;;;;;;6154613;23;20002;-56
2022/04/04 01:14:24;;;;;;;0.00;0.00;;;;;;;;;;6154298;23;20404;-56
2022/04/04 01:16:49;;;;;;;0.00;0.00;;;;;;;;;;6154437;23;20056;-57
2022/04/04 01:19:14;;;;;;;0.00;0.00;;;;;;;;;;6153989;23;20011;-55
2022/04/04 01:21:39;;;;;;;0.00;0.00;;;;;;;;;;6154187;23;20088;-56
2022/04/04 01:24:05;;;;;;;0.00;0.00;;;;;;;;;;6153771;23;20076;-55
2022/04/04 01:26:31;;;;;;;0.00;0.00;;;;;;;;;;6154260;23;20045;-53
2022/04/04 01:28:56;;;;;;;0.00;0.00;;;;;;;;;;6153720;23;20085;-53
2022/04/04 01:31:21;;;;;;;0.00;0.00;;;;;;;;;;6154158;23;20005;-54
2022/04/04 01:33:46;;;;;;;0.00;0.00;;;;;;;;;;6153715;23;20025;-55
2022/04/04 01:36:12;;;;;;;0.00;0.00;;;;;;;;;;6153785;23;20001;-49
2022/04/04 01:38:37;;;;;;;1.75;1.75;;;;;;;;;;6154444;23;20005;-56
2022/04/04 01:41:02;;;;;;;0.00;0.00;;;;;;;;;;6153859;23;20404;-55
2022/04/04 01:43:27;;;;;;;0.00;0.00;;;;;;;;;;6154043;23;19993;-55
2022/04/04 01:48:37;;;;;;;0.00;0.00;;;;;;;;;;6153559;23;20008;-55
2022/04/04 01:51:03;;;;;;;0.00;0.00;;;;;;;;;;6127498;23;20064;-56
2022/04/04 01:53:29;;;;;;;0.00;0.00;;;;;;;;;;6153253;23;20005;-56
2022/04/04 01:55:56;;;;;;;0.00;0.00;;;;;;;;;;6154046;23;20075;-52
2022/04/04 01:58:21;;;;;;;0.05;0.05;;;;;;;;;;6153399;23;20056;-54
2022/04/04 02:00:46;;;;;;;0.00;0.00;;;;;;;;;;6153726;23;20002;-54
2022/04/04 02:03:12;;;;;;;0.00;0.00;;;;;;;;;;6153357;23;20057;-56
2022/04/04 02:05:37;;;;;;;0.00;0.00;;;;;;;;;;6154139;23;20022;-54
2022/04/04 02:08:03;;;;;;;0.00;0.00;;;;;;;;;;6153448;23;20025;-55
2022/04/04 02:10:28;;;;;;;0.00;0.00;;;;;;;;;;6153677;23;20097;-56
2022/04/04 02:12:53;;;;;;;0.00;0.00;;;;;;;;;;6153925;23;20009;-53
2022/04/04 02:15:18;;;;;;;0.00;0.00;;;;;;;;;;6153587;23;20437;-55
2022/04/04 02:17:44;;;;;;;4.75;2.45;;;;;;;;;;6153876;23;20376;-51
2022/04/04 02:20:09;;;;;;;0.00;0.00;;;;;;;;;;6153080;23;19997;-52
2022/04/04 02:22:35;;;;;;;0.28;0.28;;;;;;;;;;6153720;23;20005;-53
2022/04/04 02:25:00;;;;;;;0.00;0.00;;;;;;;;;;6153611;23;20008;-51
2022/04/04 02:27:25;;;;;;;0.00;0.00;;;;;;;;;;6127033;23;20005;-53
2022/04/04 02:29:51;;;;;;;1.08;1.08;;;;;;;;;;6153559;23;20419;-53
2022/04/04 02:32:16;;;;;;;0.00;0.00;;;;;;;;;;6152988;23;20004;-55
2022/04/04 02:34:41;;;;;;;0.00;0.00;;;;;;;;;;6153413;23;20076;-55
2022/04/04 02:37:06;;;;;;;0.00;0.00;;;;;;;;;;6153185;23;19998;-54
2022/04/04 02:39:32;;;;;;;0.00;0.00;;;;;;;;;;6153808;23;20001;-54
2022/04/04 02:41:57;;;;;;;0.00;0.00;;;;;;;;;;6153585;23;20371;-55
2022/04/04 02:44:22;;;;;;;0.00;0.00;;;;;;;;;;6152972;23;19997;-51
2022/04/04 02:46:48;;;;;;;0.00;0.00;;;;;;;;;;6153716;23;19998;-54
2022/04/04 02:49:14;;;;;;;0.00;0.00;;;;;;;;;;6152977;23;20412;-55
2022/04/04 02:51:39;;;;;;;0.00;0.00;;;;;;;;;;6152574;23;19998;-56
2022/04/04 02:54:04;;;;;;;0.00;0.00;;;;;;;;;;6152365;23;20021;-56
2022/04/04 02:56:29;;;;;;;0.00;0.00;;;;;;;;;;6153007;23;20012;-50
2022/04/04 02:58:55;;;;;;;0.00;0.00;;;;;;;;;;6153091;23;20032;-54
2022/04/04 03:01:22;;;;;;;0.00;0.00;;;;;;;;;;6152839;23;20009;-54
2022/04/04 03:03:47;;;;;;;0.00;0.00;;;;;;;;;;6153030;23;20004;-54
2022/04/04 03:06:12;;;;;;;0.25;0.25;;;;;;;;;;6152877;23;20320;-56
2022/04/04 03:08:38;;;;;;;0.63;0.63;;;;;;;;;;6153247;23;20008;-52
2022/04/04 03:11:03;;;;;;;0.00;0.00;;;;;;;;;;6153249;23;20005;-52
2022/04/04 03:13:29;;;;;;;0.95;0.95;;;;;;;;;;6153528;23;20323;-54
2022/04/04 03:15:54;;;;;;;0.03;0.03;;;;;;;;;;6152709;23;20037;-51
2022/04/04 03:18:20;;;;;;;0.00;0.00;;;;;;;;;;6152471;23;20025;-52
2022/04/04 03:20:45;;;;;;;0.00;0.00;;;;;;;;;;6152795;23;20015;-51
2022/04/04 03:23:10;;;;;;;0.00;0.00;;;;;;;;;;6152556;23;20072;-53
2022/04/04 03:25:36;;;;;;;0.00;0.00;;;;;;;;;;6152671;23;20136;-54
2022/04/04 03:28:01;;;;;;;0.00;0.00;;;;;;;;;;6152895;23;20000;-53
2022/04/04 03:30:27;;;;;;;0.00;0.00;;;;;;;;;;6153185;23;20411;-55
2022/04/04 03:32:55;;;;;;;0.08;0.08;;;;;;;;;;6153068;23;20002;-54
2022/04/04 03:35:20;;;;;;;0.00;0.00;;;;;;;;;;6152056;23;20060;-54
2022/04/04 03:37:46;;;;;;;0.00;0.00;;;;;;;;;;6152655;23;20005;-51
2022/04/04 03:40:13;;;;;;;0.60;0.60;;;;;;;;;;6152226;23;20001;-53
2022/04/04 03:42:38;;;;;;;0.00;0.00;;;;;;;;;;6153142;23;20400;-55
2022/04/04 03:45:04;;;;;;;0.00;0.00;;;;;;;;;;6152524;23;20052;-55
2022/04/04 03:47:30;;;;;;;0.00;0.00;;;;;;;;;;6153383;23;20017;-53
2022/04/04 03:49:55;;;;;;;0.00;0.00;;;;;;;;;;6152361;23;20001;-54
2022/04/04 03:52:20;;;;;;;0.00;0.00;;;;;;;;;;6152381;23;20009;-53
2022/04/04 03:54:46;;;;;;;0.00;0.00;;;;;;;;;;6151904;23;20028;-54
2022/04/04 03:57:11;;;;;;;0.00;0.00;;;;;;;;;;6152490;23;20072;-52
2022/04/04 03:59:36;;;;;;;0.00;0.00;;;;;;;;;;6153316;23;20048;-54
2022/04/04 04:02:01;;;;;;;0.00;0.00;;;;;;;;;;6152491;23;20002;-53
2022/04/04 04:04:26;;;;;;;0.00;0.00;;;;;;;;;;6152798;23;20056;-55
2022/04/04 04:06:52;;;;;;;0.00;0.00;;;;;;;;;;6152167;23;20005;-55
2022/04/04 04:09:18;;;;;;;0.00;0.00;;;;;;;;;;6152104;23;19994;-56
2022/04/04 04:11:43;;;;;;;0.00;0.00;;;;;;;;;;6152736;23;20418;-53
2022/04/04 04:14:08;;;;;;;0.00;0.00;;;;;;;;;;6152295;23;20001;-53
2022/04/04 04:16:33;;;;;;;0.10;0.10;;;;;;;;;;6152590;23;20028;-56
2022/04/04 04:18:59;;;;;;;0.75;0.75;;;;;;;;;;6152211;23;19997;-56
2022/04/04 04:21:24;;;;;;;0.00;0.00;;;;;;;;;;6152121;23;19998;-54
2022/04/04 04:23:50;;;;;;;0.00;0.00;;;;;;;;;;6152353;23;20024;-54
2022/04/04 04:26:15;;;;;;;0.00;0.00;;;;;;;;;;6152061;23;20323;-55
2022/04/04 04:28:41;;;;;;;0.90;0.90;;;;;;;;;;6152118;23;19998;-55
2022/04/04 04:31:06;;;;;;;0.00;0.00;;;;;;;;;;6151850;23;20016;-56
2022/04/04 04:33:32;;;;;;;6.57;5.95;;;;;;;;;;6153354;23;20005;-54
2022/04/04 04:35:57;;;;;;;0.00;0.00;;;;;;;;;;6154624;23;20300;-56
2022/04/04 04:38:23;;;;;;;0.00;0.00;;;;;;;;;;6154034;23;20009;-53
2022/04/04 04:40:48;;;;;;;0.10;0.10;;;;;;;;;;6154178;23;20474;-56
2022/04/04 04:43:13;;;;;;;0.00;0.00;;;;;;;;;;6127901;23;20004;-54
2022/04/04 04:45:38;;;;;;;0.00;0.00;;;;;;;;;;6154026;23;20001;-53
2022/04/04 04:48:06;;;;;;;0.00;0.00;;;;;;;;;;6153791;23;20097;-55
2022/04/04 04:50:32;;;;;;;0.00;0.00;;;;;;;;;;6154469;23;20001;-52
2022/04/04 04:52:58;;;;;;;0.05;0.05;;;;;;;;;;6154008;23;20320;-56
2022/04/04 04:55:24;;;;;;;0.00;0.00;;;;;;;;;;6153828;23;20021;-55
2022/04/04 04:57:49;;;;;;;0.80;0.50;;;;;;;;;;6154251;23;20008;-55
2022/04/04 05:00:16;;;;;;;0.00;0.00;;;;;;;;;;6154037;23;20036;-56
2022/04/04 05:02:41;;;;;;;0.00;0.00;;;;;;;;;;6154454;23;20419;-52
2022/04/04 05:05:07;;;;;;;0.00;0.00;;;;;;;;;;6153784;23;19993;-55
2022/04/04 05:07:32;;;;;;;0.00;0.00;;;;;;;;;;6154112;23;20012;-54
2022/04/04 05:09:57;;;;;;;2.30;2.30;;;;;;;;;;6154249;23;20001;-53
2022/04/04 05:12:23;;;;;;;1.65;0.63;;;;;;;;;;6153580;23;19994;-55
2022/04/04 05:14:48;;;;;;;0.00;0.00;;;;;;;;;;6154204;23;20009;-55
2022/04/04 05:17:13;;;;;;;1.25;1.15;;;;;;;;;;6153721;23;20081;-52
2022/04/04 05:19:38;;;;;;;1.30;0.70;;;;;;;;;;6153473;23;19997;-54
2022/04/04 05:22:04;;;;;;;0.15;0.15;;;;;;;;;;6153524;23;20001;-55
2022/04/04 05:24:29;;;;;;;0.00;0.00;;;;;;;;;;6153760;23;20002;-55
2022/04/04 05:26:55;;;;;;;4.25;4.05;;;;;;;;;;6153720;23;20383;-54
2022/04/04 05:29:21;;;;;;;0.38;0.38;;;;;;;;;;6153481;23;20002;-53
2022/04/04 05:31:46;;;;;;;0.00;0.00;;;;;;;;;;6153584;23;19998;-56
2022/04/04 05:34:11;;;;;;;0.00;0.00;;;;;;;;;;6153387;23;20005;-55
2022/04/04 05:36:37;;;;;;;0.20;0.20;;;;;;;;;;6153807;23;20412;-53
2022/04/04 05:39:03;;;;;;;0.10;0.10;;;;;;;;;;6153607;23;20002;-54
2022/04/04 05:41:28;;;;;;;0.00;0.00;;;;;;;;;;6153757;23;20001;-54
2022/04/04 05:43:53;;;;;;;0.47;0.47;;;;;;;;;;6153025;23;20020;-53
2022/04/04 05:46:19;;;;;;;0.20;0.20;;;;;;;;;;6126256;23;20001;-53
2022/04/04 05:48:45;;;;;;;0.00;0.00;;;;;;;;;;6152420;23;20009;-54
2022/04/04 05:51:10;;;;;;;0.10;0.10;;;;;;;;;;6153050;23;20001;-54
2022/04/04 05:53:36;;;;;;;0.00;0.00;;;;;;;;;;6153347;23;20013;-55
2022/04/04 05:56:02;;;;;;;0.05;0.05;;;;;;;;;;6152780;23;20327;-54
2022/04/04 05:58:27;;;;;;;0.00;0.00;;;;;;;;;;6152879;23;20005;-58
2022/04/04 06:00:53;;;;;;;4.35;1.45;;;;;;;;;;6153143;23;20328;-57
2022/04/04 06:03:21;;;;;;;0.00;0.00;;;;;;;;;;6152426;23;20028;-57
2022/04/04 06:05:50;;;;;;;0.00;0.00;;;;;;;;;;6152417;23;20531;-57
2022/04/04 06:08:18;;;;;;;0.00;0.00;;;;;;;;;;6152366;23;20036;-56
2022/04/04 06:10:45;;;;;;;0.00;0.00;;;;;;;;;;6153673;23;20060;-57
2022/04/04 06:13:12;;;;;;;0.30;0.30;;;;;;;;;;6149153;23;20047;-58
2022/04/04 06:15:37;;;;;;;0.10;0.10;;;;;;;;;;6152442;23;20004;-58
2022/04/04 06:18:04;;;;;;;0.65;0.65;;;;;;;;;;6152974;23;20002;-57
2022/04/04 06:20:29;;;;;;;0.43;0.43;;;;;;;;;;6152929;23;20423;-58
2022/04/04 06:22:55;;;;;;;0.00;0.00;;;;;;;;;;6152869;23;20002;-59
2022/04/04 06:25:21;;;;;;;2.40;2.20;;;;;;;;;;6152661;23;20033;-58
2022/04/04 06:27:47;;;;;;;0.68;0.68;;;;;;;;;;6152640;23;19990;-58
2022/04/04 06:30:12;;;;;;;1.35;1.27;;;;;;;;;;6152355;23;20024;-57
2022/04/04 06:32:39;;;;;;;0.50;0.50;;;;;;;;;;6152929;23;20061;-58
2022/04/04 06:35:05;;;;;;;0.77;0.77;;;;;;;;;;6126572;23;20001;-58
2022/04/04 06:37:31;;;;;;;0.08;0.08;;;;;;;;;;6153610;23;20529;-58
2022/04/04 06:39:56;;;;;;;0.80;0.80;;;;;;;;;;6153864;23;20001;-58
2022/04/04 06:42:23;;;;;;;0.00;0.00;;;;;;;;;;6153624;23;20005;-56
2022/04/04 06:44:48;;;;;;;0.00;0.00;;;;;;;;;;6153883;23;19997;-57
2022/04/04 06:47:13;;;;;;;0.20;0.20;;;;;;;;;;6153481;23;20005;-55
2022/04/04 06:49:40;;;;;;;0.17;0.17;;;;;;;;;;6153239;23;20082;-58
2022/04/04 06:52:06;;;;;;;2.67;0.88;;;;;;;;;;6153578;23;20009;-57
2022/04/04 06:54:32;;;;;;;1.38;1.38;;;;;;;;;;6153700;23;20642;-57
2022/04/04 06:56:57;;;;;;;0.20;0.20;;;;;;;;;;6154050;23;20005;-57
2022/04/04 06:59:23;;;;;;;0.30;0.30;;;;;;;;;;6153621;23;20001;-56
2022/04/04 07:01:49;;;;;;;0.00;0.00;;;;;;;;;;6154057;23;19998;-56
2022/04/04 07:04:15;;;;;;;0.03;0.03;;;;;;;;;;6153618;23;20005;-58
2022/04/04 07:06:40;;;;;;;0.43;0.43;;;;;;;;;;6153918;23;20032;-58
2022/04/04 07:09:07;;;;;;;2.13;2.03;;;;;;;;;;6153986;23;20451;-59
2022/04/04 07:11:33;;;;;;;1.33;1.23;;;;;;;;;;6154173;23;20073;-58
2022/04/04 07:13:59;;;;;;;6.03;3.22;;;;;;;;;;6127867;23;20027;-58
2022/04/04 07:16:25;;;;;;;0.00;0.00;;;;;;;;;;6153627;23;20327;-58
2022/04/04 07:18:51;;;;;;;0.45;0.45;;;;;;;;;;6154144;23;20475;-59
2022/04/04 07:21:16;;;;;;;1.02;1.02;;;;;;;;;;6153409;23;20008;-58
2022/04/04 07:23:41;;;;;;;0.80;0.65;;;;;;;;;;6153661;23;20001;-57
2022/04/04 07:26:07;;;;;;;1.05;1.00;;;;;;;;;;6153147;23;20312;-58
2022/04/04 07:28:32;;;;;;;0.10;0.10;;;;;;;;;;6126665;23;20005;-57
2022/04/04 07:30:58;;;;;;;2.08;1.50;;;;;;;;;;6152929;23;20020;-56
2022/04/04 07:33:23;;;;;;;0.65;0.65;;;;;;;;;;6153115;23;20092;-56
2022/04/04 07:35:49;;;;;;;0.63;0.35;;;;;;;;;;6153188;23;20006;-58
2022/04/04 07:38:14;;;;;;;0.80;0.80;;;;;;;;;;6154102;23;20008;-56
2022/04/04 07:40:40;;;;;;;0.70;0.70;;;;;;;;;;6154266;23;20002;-56
2022/04/04 07:43:05;;;;;;;1.30;1.17;;;;;;;;;;6154241;23;20060;-59
2022/04/04 07:45:31;;;;;;;0.00;0.00;;;;;;;;;;6153952;23;20008;-58
2022/04/04 07:47:57;;;;;;;2.17;2.00;;;;;;;;;;6153994;23;19994;-58
2022/04/04 07:50:22;;;;;;;1.30;1.00;;;;;;;;;;6153919;23;20035;-58
2022/04/04 07:52:47;;;;;;;0.70;0.70;;;;;;;;;;6154033;23;20020;-57
2022/04/04 07:55:13;;;;;;;4.03;3.75;;;;;;;;;;6153492;23;20048;-57
2022/04/04 07:57:38;;;;;;;0.45;0.45;;;;;;;;;;6154075;23;20012;-57
2022/04/04 08:00:04;;;;;;;1.75;1.65;;;;;;;;;;6153525;23;20528;-57
2022/04/04 08:02:30;;;;;;;6.93;3.10;;;;;;;;;;6153510;23;20048;-57
2022/04/04 08:04:55;;;;;;;1.90;1.75;;;;;;;;;;6153858;23;19997;-56
2022/04/04 08:07:20;;;;;;;4.00;2.65;;;;;;;;;;6153715;23;19998;-56
2022/04/04 08:09:46;;;;;;;0.10;0.10;;;;;;;;;;6153720;23;20008;-57
2022/04/04 08:12:12;;;;;;;0.30;0.30;;;;;;;;;;6153516;23;20005;-58
2022/04/04 08:14:37;;;;;;;1.08;1.08;;;;;;;;;;6153214;23;20370;-58
2022/04/04 08:17:03;;;;;;;1.92;1.80;;;;;;;;;;6153933;23;20011;-56
2022/04/04 08:19:29;;;;;;;1.00;1.00;;;;;;;;;;6153590;23;20088;-56
2022/04/04 08:21:55;;;;;;;2.00;1.95;;;;;;;;;;6153854;23;20009;-57
2022/04/04 08:24:21;;;;;;;0.35;0.35;;;;;;;;;;6154118;23;20002;-58
2022/04/04 08:26:46;;;;;;;2.45;1.95;;;;;;;;;;6153678;23;20002;-57
2022/04/04 08:29:12;;;;;;;0.65;0.52;;;;;;;;;;6153545;23;20005;-57
2022/04/04 08:31:37;;;;;;;1.42;1.35;;;;;;;;;;6154185;23;20005;-57
2022/04/04 08:34:02;;;;;;;2.58;2.08;;;;;;;;;;6153939;23;20017;-57
2022/04/04 08:36:28;;;;;;;0.40;0.40;;;;;;;;;;6153202;23;20001;-55
2022/04/04 08:38:53;;;;;;;1.08;1.08;;;;;;;;;;6153927;23;19997;-58
2022/04/04 08:41:19;;;;;;;1.45;0.63;;;;;;;;;;6153510;23;20005;-57
2022/04/04 08:43:49;;;;;;;3.47;2.83;;;;;;;;;;6153818;23;20020;-58
2022/04/04 08:46:14;;;;;;;1.40;1.35;;;;;;;;;;6153520;23;20408;-58
2022/04/04 08:48:40;;;;;;;0.00;0.00;;;;;;;;;;6154104;23;20054;-57
2022/04/04 08:51:09;;;;;;;1.02;0.70;;;;;;;;;;6153693;23;20376;-56
2022/04/04 08:53:38;;;;;;;0.65;0.65;;;;;;;;;;6127143;23;20423;-58
2022/04/04 08:56:04;;;;;;;0.40;0.40;;;;;;;;;;6153655;23;20380;-58
2022/04/04 08:58:30;;;;;;;3.92;1.38;;;;;;;;;;6153227;23;20025;-57
2022/04/04 09:00:56;;;;;;;0.75;0.75;;;;;;;;;;6127581;23;20049;-57
2022/04/04 09:03:22;;;;;;;1.38;1.25;;;;;;;;;;6153866;23;20002;-58
2022/04/04 09:05:54;;;;;;;0.95;0.95;;;;;;;;;;6153885;23;20000;-57
2022/04/04 09:08:20;;;;;;;1.63;1.52;;;;;;;;;;6153479;23;20428;-58
2022/04/04 09:10:46;;;;;;;1.23;1.23;;;;;;;;;;6153193;23;19997;-57
2022/04/04 09:13:15;;;;;;;0.20;0.20;;;;;;;;;;6153358;23;20002;-59
2022/04/04 09:15:53;;;;;;;0.70;0.70;;;;;;;;;;6153798;23;20005;-58
2022/04/04 09:18:19;;;;;;;1.27;1.17;;;;;;;;;;6153179;23;20001;-58
2022/04/04 09:20:51;;;;;;;1.10;1.10;;;;;;;;;;6155032;23;20060;-58
2022/04/04 09:23:16;;;;;;;2.17;2.00;;;;;;;;;;6155089;23;20370;-57
2022/04/04 09:25:41;;;;;;;3.30;1.23;;;;;;;;;;6155464;23;20009;-56
2022/04/04 09:28:19;;;;;;;2.13;2.05;;;;;;;;;;6154932;23;20361;-56
2022/04/04 09:31:03;;;;;;;1.95;1.85;;;;;;;;;;6154911;23;20009;-57
2022/04/04 09:33:39;;;;;;;0.43;0.43;;;;;;;;;;6155296;23;20051;-56
2022/04/04 09:36:04;;;;;;;0.88;0.88;;;;;;;;;;6155079;23;19998;-57
2022/04/04 09:38:33;;;;;;;1.42;1.33;;;;;;;;;;6155532;23;20449;-58
2022/04/04 09:41:03;;;;;;;1.27;1.08;;;;;;;;;;6154716;23;20016;-58
2022/04/04 09:43:48;;;;;;;0.80;0.80;;;;;;;;;;6155289;23;20013;-57
2022/04/04 09:46:13;;;;;;;2.08;1.90;;;;;;;;;;6155046;23;20001;-57
2022/04/04 09:48:58;;;;;;;2.38;2.28;;;;;;;;;;6154866;23;20080;-58
2022/04/04 09:51:33;;;;;;;1.15;0.98;;;;;;;;;;6154854;23;20001;-57
2022/04/04 09:54:03;;;;;;;0.20;0.20;;;;;;;;;;6155029;23;20009;-58
2022/04/04 09:56:28;;;;;;;1.45;1.35;;;;;;;;;;6155606;23;20035;-57
2022/04/04 09:58:54;;;;;;;2.63;1.88;;;;;;;;;;6154802;23;20025;-58
2022/04/04 10:01:19;;;;;;;0.45;0.45;;;;;;;;;;6154726;23;20008;-57
2022/04/04 10:03:45;;;;;;;1.58;1.52;;;;;;;;;;6155035;23;19993;-57
2022/04/04 10:06:12;;;;;;;0.25;0.25;;;;;;;;;;6154747;23;19998;-58
2022/04/04 10:08:38;;;;;;;3.85;1.58;;;;;;;;;;6155220;23;20028;-57
2022/04/04 10:11:05;;;;;;;0.80;0.80;;;;;;;;;;6155097;23;20323;-59
2022/04/04 10:13:31;;;;;;;0.13;0.13;;;;;;;;;;6154805;23;20031;-54
2022/04/04 10:15:56;;;;;;;0.55;0.55;;;;;;;;;;6154736;23;20001;-56
2022/04/04 10:18:21;;;;;;;1.52;1.42;;;;;;;;;;6154937;23;20060;-56
2022/04/04 10:20:53;;;;;;;0.68;0.68;;;;;;;;;;6154936;23;20048;-57
2022/04/04 10:23:18;;;;;;;0.32;0.32;;;;;;;;;;6154695;23;20005;-55
2022/04/04 10:25:44;;;;;;;1.55;1.45;;;;;;;;;;6153374;23;20427;-57
2022/04/04 10:28:09;;;;;;;0.93;0.80;;;;;;;;;;6154548;23;20001;-58
2022/04/04 10:30:35;;;;;;;2.08;1.85;;;;;;;;;;6154199;23;20002;-57
2022/04/04 10:33:01;;;;;;;1.17;1.17;;;;;;;;;;6154307;23;20009;-57
2022/04/04 10:35:28;;;;;;;3.90;1.38;;;;;;;;;;6153502;23;19997;-58
2022/04/04 10:37:56;;;;;;;0.65;0.65;;;;;;;;;;6153754;23;20059;-56
2022/04/04 10:40:25;;;;;;;1.30;1.20;;;;;;;;;;6152112;23;20056;-60
2022/04/04 10:43:05;;;;;;;0.45;0.45;;;;;;;;;;6153598;23;20001;-57
2022/04/04 10:45:31;;;;;;;1.58;1.48;;;;;;;;;;6153744;23;19997;-57
2022/04/04 10:48:06;;;;;;;2.03;1.40;;;;;;;;;;6153218;23;19998;-56
2022/04/04 10:50:33;;;;;;;0.47;0.47;;;;;;;;;;6154338;23;20120;-56
2022/04/04 10:53:00;;;;;;;0.10;0.03;;;;;;;;;;6154710;23;20025;-55
2022/04/04 10:55:36;;;;;;;0.25;0.25;;;;;;;;;;6153295;23;20018;-53
2022/04/04 10:58:07;;;;;;;1.40;1.30;;;;;;;;;;6154142;23;20020;-56
2022/04/04 11:00:34;;;;;;;4.63;4.38;;;;;;;;;;6153596;23;20013;-56
2022/04/04 11:03:01;;;;;;;2.17;1.02;;;;;;;;;;6154784;23;20296;-54
2022/04/04 11:08:12;;;;;;;0.43;0.43;;;;;;;;;;6154426;23;20004;-55
2022/04/04 11:10:42;;;;;;;0.17;0.17;;;;;;;;;;6153682;23;20052;-55
2022/04/04 11:13:08;;;;;;;2.83;0.55;;;;;;;;;;6153735;23;20025;-55
2022/04/04 11:15:40;;;;;;;10.27;1.58;;;;;;;;;;6153382;23;20016;-55
2022/04/04 11:18:05;;;;;;;1.05;1.05;;;;;;;;;;6153601;23;20032;-56
2022/04/04 11:20:33;;;;;;;1.65;1.58;;;;;;;;;;6153607;23;20004;-53
2022/04/04 11:23:14;;;;;;;1.13;1.02;;;;;;;;;;6153548;23;19993;-52
2022/04/04 11:25:49;;;;;;;0.38;0.38;;;;;;;;;;6153162;23;20024;-53
2022/04/04 11:28:15;;;;;;;1.48;1.38;;;;;;;;;;6153680;23;20324;-52
2022/04/04 11:30:40;;;;;;;0.88;0.88;;;;;;;;;;6153191;23;20383;-55
2022/04/04 11:33:11;;;;;;;1.65;0.93;;;;;;;;;;6151030;23;20001;-52
2022/04/04 11:35:36;;;;;;;1.60;1.50;;;;;;;;;;6151897;23;20005;-53
2022/04/04 11:38:07;;;;;;;0.73;0.73;;;;;;;;;;6153135;23;20613;-51
2022/04/04 11:40:34;;;;;;;3.10;2.90;;;;;;;;;;6152889;23;20010;-53
2022/04/04 11:43:00;;;;;;;0.93;0.93;;;;;;;;;;6152789;23;20051;-53
2022/04/04 11:45:27;;;;;;;0.63;0.63;;;;;;;;;;6153015;23;20002;-57
2022/04/04 11:48:17;;;;;;;1.40;1.30;;;;;;;;;;6153500;23;20000;-58
2022/04/04 11:50:43;;;;;;;0.60;0.60;;;;;;;;;;6138975;23;20021;-58
2022/04/04 11:53:09;;;;;;;0.90;0.90;;;;;;;;;;6154327;23;20001;-55
2022/04/04 11:55:36;;;;;;;0.43;0.43;;;;;;;;;;6153676;23;20300;-56
2022/04/04 11:58:02;;;;;;;2.63;2.42;;;;;;;;;;6154115;23;20379;-57
2022/04/04 12:00:31;;;;;;;3.63;1.45;;;;;;;;;;6153337;23;19997;-56
2022/04/04 12:02:56;;;;;;;0.93;0.93;;;;;;;;;;6153127;23;19997;-58
2022/04/04 12:05:23;;;;;;;0.10;0.10;;;;;;;;;;6153223;23;20143;-56
2022/04/04 12:07:51;;;;;;;1.33;1.33;;;;;;;;;;6153004;23;19997;-56
2022/04/04 12:10:31;;;;;;;0.10;0.10;;;;;;;;;;6153714;23;20447;-57
2022/04/04 12:12:56;;;;;;;;;;;;;;;;;;6153781;23;19997;-57
2022/04/04 12:15:25;;;;;;;0.93;0.77;;;;;;;;;;6153637;23;19908;-58
2022/04/04 12:17:51;;;;;;;0.45;0.30;;;;;;;;;;6153607;23;19997;-56
2022/04/04 12:20:17;;;;;;;1.70;1.45;;;;;;;;;;6153378;23;20319;-56
2022/04/04 12:25:26;;;;;;;1.95;1.85;;;;;;;;;;6152760;23;20016;-57
2022/04/04 12:27:58;;;;;;;1.50;1.25;;;;;;;;;;6152301;23;20001;-56
2022/04/04 12:30:29;;;;;;;1.77;1.67;;;;;;;;;;6152562;23;20331;-56
2022/04/04 12:33:05;;;;;;;1.38;1.13;;;;;;;;;;6152366;23;20012;-57
2022/04/04 12:35:30;;;;;;;1.85;1.75;;;;;;;;;;6152915;23;20076;-56
2022/04/04 12:37:56;;;;;;;0.93;0.93;;;;;;;;;;6153315;23;20035;-56
2022/04/04 12:40:21;;;;;;;0.93;0.93;;;;;;;;;;6153171;23;20005;-56
2022/04/04 12:42:50;;;;;;;0.38;0.30;;;;;;;;;;6153663;23;20005;-58
2022/04/04 12:45:17;;;;;;;1.15;1.15;;;;;;;;;;6151443;23;20009;-60
2022/04/04 12:47:53;;;;;;;1.17;1.08;;;;;;;;;;6152451;23;19997;-59
2022/04/04 12:50:21;;;;;;;1.83;1.73;;;;;;;;;;6152780;23;19993;-59
2022/04/04 12:52:59;;;;;;;1.10;1.08;;;;;;;;;;6152951;23;19997;-59
2022/04/04 12:55:25;;;;;;;0.40;0.40;;;;;;;;;;6154910;23;20017;-58
2022/04/04 12:57:50;;;;;;;4.70;1.25;;;;;;;;;;6154732;23;20000;-58
2022/04/04 13:00:37;;;;;;;2.35;2.15;;;;;;;;;;6154741;23;20382;-59
2022/04/04 13:03:19;;;;;;;2.55;1.65;;;;;;;;;;6156378;23;20048;-59
2022/04/04 13:05:45;;;;;;;0.43;0.43;;;;;;;;;;6156131;23;20370;-58
2022/04/04 13:08:15;;;;;;;0.57;0.25;;;;;;;;;;6156132;23;20021;-59
2022/04/04 13:10:41;;;;;;;1.15;1.00;;;;;;;;;;6156600;23;20009;-58
2022/04/04 13:13:10;;;;;;;0.43;0.43;;;;;;;;;;6156170;23;19997;-60
2022/04/04 13:15:39;;;;;;;1.98;1.35;;;;;;;;;;6156757;23;19998;-59
2022/04/04 13:18:05;;;;;;;0.70;0.70;;;;;;;;;;6156576;23;20363;-59
2022/04/04 13:20:30;;;;;;;0.65;0.65;;;;;;;;;;6156455;23;20004;-58
2022/04/04 13:22:55;;;;;;;0.65;0.65;;;;;;;;;;6155920;23;20001;-58
2022/04/04 13:25:20;;;;;;;0.60;0.60;;;;;;;;;;6155999;23;20005;-58
2022/04/04 13:27:46;;;;;;;0.88;0.80;;;;;;;;;;6156337;23;20009;-58
2022/04/04 13:30:11;;;;;;;0.10;0.10;;;;;;;;;;6154828;23;20039;-59
2022/04/04 13:32:38;;;;;;;1.17;1.10;;;;;;;;;;6154215;23;19993;-58
2022/04/04 13:35:03;;;;;;;1.83;1.73;;;;;;;;;;6154895;23;20001;-57
2022/04/04 13:37:28;;;;;;;0.88;0.45;;;;;;;;;;6154895;23;20430;-59
2022/04/04 13:39:54;;;;;;;0.52;0.50;;;;;;;;;;6154086;23;20004;-59
2022/04/04 13:42:19;;;;;;;0.20;0.20;;;;;;;;;;6151745;23;20013;-57
2022/04/04 13:44:45;;;;;;;1.10;1.10;;;;;;;;;;6154878;23;20053;-58
2022/04/04 13:47:10;;;;;;;6.18;1.70;;;;;;;;;;6154410;23;20001;-59
2022/04/04 13:49:36;;;;;;;2.25;1.98;;;;;;;;;;6153426;23;20061;-58
2022/04/04 13:52:02;;;;;;;0.75;0.73;;;;;;;;;;6154650;23;20085;-57
2022/04/04 13:54:27;;;;;;;1.10;1.08;;;;;;;;;;6153692;23;20149;-58
2022/04/04 13:56:52;;;;;;;1.52;1.52;;;;;;;;;;6154489;23;20017;-58
2022/04/04 13:59:18;;;;;;;1.55;1.45;;;;;;;;;;6153250;23;20140;-59
2022/04/04 14:01:44;;;;;;;0.28;0.28;;;;;;;;;;6154889;23;20001;-59
2022/04/04 14:04:09;;;;;;;0.80;0.80;;;;;;;;;;6152943;23;19994;-58
2022/04/04 14:06:34;;;;;;;0.30;0.30;;;;;;;;;;6153290;23;20001;-59
2022/04/04 14:09:00;;;;;;;0.20;0.20;;;;;;;;;;6154136;23;20001;-59
2022/04/04 14:11:29;;;;;;;1.38;1.25;;;;;;;;;;6154038;23;20015;-58
2022/04/04 14:13:54;;;;;;;1.58;1.48;;;;;;;;;;6154265;23;20411;-59
2022/04/04 14:16:20;;;;;;;2.15;0.82;;;;;;;;;;6153825;23;20009;-59
2022/04/04 14:18:45;;;;;;;0.30;0.30;;;;;;;;;;6154128;23;20005;-58
2022/04/04 14:21:12;;;;;;;0.15;0.15;;;;;;;;;;6153678;23;20076;-57
2022/04/04 14:23:38;;;;;;;1.35;1.23;;;;;;;;;;6153952;23;20008;-59
2022/04/04 14:26:04;;;;;;;0.90;0.90;;;;;;;;;;6154535;23;20013;-58
2022/04/04 14:28:29;;;;;;;0.20;0.03;;;;;;;;;;6153604;23;20000;-59
2022/04/04 14:30:58;;;;;;;0.10;0.10;;;;;;;;;;6154291;23;20005;-57
2022/04/04 14:33:25;;;;;;;0.55;0.50;;;;;;;;;;6153912;23;20007;-58
2022/04/04 14:35:51;;;;;;;0.55;0.55;;;;;;;;;;6153760;23;20004;-59
2022/04/04 14:38:16;;;;;;;1.38;0.70;;;;;;;;;;6153260;23;20420;-59
2022/04/04 14:40:42;;;;;;;2.30;2.20;;;;;;;;;;6153585;23;20080;-59
2022/04/04 14:43:08;;;;;;;2.83;2.63;;;;;;;;;;6154020;23;19993;-57
2022/04/04 14:45:33;;;;;;;0.80;0.80;;;;;;;;;;6153871;23;20012;-58
2022/04/04 14:47:58;;;;;;;0.98;0.98;;;;;;;;;;6154288;23;20064;-59